Terminal Aerodrome Forecast
Issued by NWS

Home | Current Version | Previous Version | Text Only | Print | Product List | Glossary On
Versions: 1 2 3 4 5 6 7 8 9 10 11 12 13 14 15
000
FTUS46 KMTR 051126
TAFSNS
TAF
KSNS 051126Z 0512/0612 VRB03KT P6SM OVC050
     FM051400 13003KT P6SM OVC050
     FM051900 28012KT P6SM VCSH SCT035 BKN100
     FM060300 29006KT P6SM VCSH BKN035 OVC080
     FM060800 23003KT P6SM VCSH BKN025 OVC080=

USA.gov is the U.S. government's official web portal to all federal, state and local government web resources and services.